createdAt,value
2023-04-15T00:05:50.394Z,985
2023-04-15T00:11:50.400Z,985
2023-04-15T00:17:50.450Z,985
2023-04-15T00:23:50.403Z,985
2023-04-15T00:29:50.398Z,985
2023-04-15T00:35:50.395Z,985
2023-04-15T00:41:50.394Z,985
2023-04-15T00:47:50.429Z,985
2023-04-15T00:53:50.401Z,985
2023-04-15T00:59:50.389Z,985
2023-04-15T01:05:50.405Z,985
2023-04-15T01:11:50.395Z,984
2023-04-15T01:17:50.478Z,984
2023-04-15T01:23:50.400Z,985
2023-04-15T01:29:50.393Z,985
2023-04-15T01:35:50.388Z,985
2023-04-15T01:41:50.381Z,985
2023-04-15T01:47:50.427Z,985
2023-04-15T01:53:50.373Z,985
2023-04-15T01:59:50.408Z,984
2023-04-15T02:05:50.396Z,984
2023-04-15T02:11:50.383Z,984
2023-04-15T02:17:50.404Z,984
2023-04-15T02:23:50.627Z,985
2023-04-15T02:29:50.402Z,985
2023-04-15T02:35:50.384Z,985
2023-04-15T02:41:50.401Z,985
2023-04-15T02:47:50.406Z,985
2023-04-15T02:53:50.383Z,985
2023-04-15T02:59:50.383Z,985
2023-04-15T03:05:50.401Z,985
2023-04-15T03:11:50.399Z,985
2023-04-15T03:17:50.414Z,985
2023-04-15T03:23:50.382Z,985
2023-04-15T03:29:50.391Z,985
2023-04-15T03:35:50.396Z,985
2023-04-15T03:41:50.391Z,985
2023-04-15T03:47:50.389Z,985
2023-04-15T03:53:50.390Z,985
2023-04-15T03:59:50.365Z,985
2023-04-15T04:05:50.380Z,985
2023-04-15T04:11:50.390Z,985
2023-04-15T04:17:50.382Z,985
2023-04-15T04:23:50.421Z,985
2023-04-15T04:29:50.366Z,985
2023-04-15T04:35:50.379Z,985
2023-04-15T04:41:50.368Z,985
2023-04-15T04:47:50.373Z,985
2023-04-15T04:53:50.374Z,985
2023-04-15T04:59:50.397Z,985
2023-04-15T05:05:50.391Z,985
2023-04-15T05:11:50.365Z,985
2023-04-15T05:17:50.377Z,985
2023-04-15T05:23:50.412Z,985
2023-04-15T05:29:50.450Z,985
2023-04-15T05:35:50.378Z,985
2023-04-15T05:41:50.364Z,985
2023-04-15T05:47:50.472Z,986
2023-04-15T05:53:50.393Z,986
2023-04-15T05:59:50.375Z,986
2023-04-15T06:11:50.374Z,986
2023-04-15T06:17:50.453Z,986
2023-04-15T06:24:00.656Z,986
2023-04-15T06:29:50.360Z,986
2023-04-15T06:35:50.370Z,986
2023-04-15T06:41:50.356Z,986
2023-04-15T06:47:50.473Z,986
2023-04-15T06:53:50.558Z,986
2023-04-15T06:59:50.369Z,986
2023-04-15T07:05:50.379Z,986
2023-04-15T07:11:50.398Z,986
2023-04-15T07:17:50.431Z,986
2023-04-15T07:23:50.382Z,986
2023-04-15T07:29:50.381Z,986
2023-04-15T07:35:50.367Z,986
2023-04-15T07:41:50.375Z,986
2023-04-15T07:47:50.424Z,986
2023-04-15T07:53:50.426Z,986
2023-04-15T07:59:50.386Z,986
2023-04-15T08:05:50.379Z,986
2023-04-15T08:11:50.431Z,986
2023-04-15T08:17:50.425Z,987
2023-04-15T08:23:50.399Z,987
2023-04-15T08:29:50.383Z,987
2023-04-15T08:35:50.470Z,987
2023-04-15T08:41:50.396Z,987
2023-04-15T08:47:50.402Z,987
2023-04-15T08:53:50.376Z,987
2023-04-15T08:59:50.378Z,987
2023-04-15T09:06:00.676Z,987
2023-04-15T09:11:50.392Z,987
2023-04-15T09:17:50.416Z,987
2023-04-15T09:23:50.386Z,987
2023-04-15T09:29:50.389Z,987
2023-04-15T09:35:50.382Z,987
2023-04-15T09:41:50.385Z,987
2023-04-15T09:47:50.427Z,987
2023-04-15T09:53:50.394Z,987
2023-04-15T09:59:50.448Z,987
2023-04-15T10:05:50.402Z,987
2023-04-15T10:11:50.407Z,987
2023-04-15T10:17:50.447Z,987
2023-04-15T10:23:50.398Z,987
2023-04-15T10:29:50.393Z,988
2023-04-15T10:35:50.415Z,988
2023-04-15T10:41:50.408Z,988
2023-04-15T10:47:50.426Z,988
2023-04-15T10:53:50.404Z,988
2023-04-15T10:59:50.392Z,988
2023-04-15T11:05:50.414Z,988
2023-04-15T11:11:50.395Z,988
2023-04-15T11:17:50.448Z,988
2023-04-15T11:23:50.392Z,988
2023-04-15T11:29:50.388Z,988
2023-04-15T11:35:50.393Z,988
2023-04-15T11:41:50.377Z,988
2023-04-15T11:47:50.444Z,988
2023-04-15T11:53:50.455Z,989
2023-04-15T11:59:50.403Z,989
2023-04-15T12:05:50.381Z,989
2023-04-15T12:11:50.433Z,989
2023-04-15T12:17:51.448Z,989
2023-04-15T12:23:50.410Z,989
2023-04-15T12:29:50.372Z,989
2023-04-15T12:35:50.454Z,989
2023-04-15T12:41:57.350Z,989
2023-04-15T12:47:50.433Z,990
2023-04-15T12:53:50.379Z,990
2023-04-15T12:59:50.372Z,990
2023-04-15T13:05:50.395Z,990
2023-04-15T13:11:50.387Z,990
2023-04-15T13:17:50.392Z,990
2023-04-15T13:23:50.383Z,990
2023-04-15T13:29:50.385Z,990
2023-04-15T13:35:50.392Z,990
2023-04-15T13:41:50.395Z,990
2023-04-15T13:47:50.419Z,990
2023-04-15T13:53:50.379Z,990
2023-04-15T13:59:50.397Z,990
2023-04-15T14:05:50.405Z,990
2023-04-15T14:11:50.386Z,991
2023-04-15T14:17:50.509Z,991
2023-04-15T14:23:50.377Z,991
2023-04-15T14:29:50.395Z,991
2023-04-15T14:35:50.379Z,991
2023-04-15T14:41:50.377Z,991
2023-04-15T14:47:50.636Z,991
2023-04-15T14:53:50.393Z,991
2023-04-15T14:59:50.379Z,991
2023-04-15T15:05:50.592Z,991
2023-04-15T15:11:50.385Z,991
2023-04-15T15:17:50.415Z,991
2023-04-15T15:23:50.393Z,991
2023-04-15T15:29:50.380Z,991
2023-04-15T15:35:50.389Z,991
2023-04-15T15:41:50.386Z,991
2023-04-15T15:47:50.458Z,992
2023-04-15T15:53:50.387Z,992
2023-04-15T15:59:53.107Z,992
2023-04-15T16:05:50.387Z,992
2023-04-15T16:11:50.421Z,992
2023-04-15T16:17:50.469Z,992
2023-04-15T16:23:50.373Z,992
2023-04-15T16:29:50.421Z,992
2023-04-15T16:35:50.445Z,992
2023-04-15T16:41:50.387Z,992
2023-04-15T16:47:50.476Z,992
2023-04-15T16:53:50.381Z,992
2023-04-15T16:59:50.378Z,992
2023-04-15T17:05:50.377Z,992
2023-04-15T17:11:50.406Z,992
2023-04-15T17:17:50.423Z,993
2023-04-15T17:23:50.409Z,993
2023-04-15T17:29:50.381Z,993
2023-04-15T17:35:50.392Z,993
2023-04-15T17:41:50.383Z,993
2023-04-15T17:47:50.378Z,993
2023-04-15T17:53:50.389Z,993
2023-04-15T17:59:50.368Z,993
2023-04-15T18:05:50.385Z,993
2023-04-15T18:11:50.430Z,993
2023-04-15T18:17:50.386Z,993
2023-04-15T18:23:50.389Z,993
2023-04-15T18:29:50.408Z,993
2023-04-15T18:35:50.382Z,994
2023-04-15T18:41:50.400Z,994
2023-04-15T18:47:50.406Z,994
2023-04-15T18:53:50.364Z,994
2023-04-15T18:59:50.381Z,994
2023-04-15T19:05:50.365Z,994
2023-04-15T19:11:50.383Z,994
2023-04-15T19:17:50.394Z,994
2023-04-15T19:23:50.373Z,994
2023-04-15T19:29:50.364Z,994
2023-04-15T19:35:50.371Z,994
2023-04-15T19:41:50.388Z,994
2023-04-15T19:47:50.439Z,994
2023-04-15T19:53:50.360Z,994
2023-04-15T19:59:50.365Z,994
2023-04-15T20:05:50.355Z,995
2023-04-15T20:12:09.621Z,995
2023-04-15T20:17:50.460Z,995
2023-04-15T20:23:50.373Z,995
2023-04-15T20:29:50.394Z,995
2023-04-15T20:35:50.370Z,995
2023-04-15T20:41:50.357Z,995
2023-04-15T20:47:50.381Z,995
2023-04-15T20:53:50.379Z,995
2023-04-15T20:59:50.388Z,995
2023-04-15T21:05:50.364Z,995
2023-04-15T21:17:50.415Z,995
2023-04-15T21:23:50.377Z,995
2023-04-15T21:29:50.379Z,995
2023-04-15T21:35:50.362Z,995
2023-04-15T21:41:50.405Z,995
2023-04-15T21:47:56.833Z,995
2023-04-15T21:53:50.376Z,995
2023-04-15T21:59:50.346Z,995
2023-04-15T22:05:50.377Z,995
2023-04-15T22:11:50.374Z,995
2023-04-15T22:17:50.438Z,996
2023-04-15T22:23:50.361Z,996
2023-04-15T22:29:50.366Z,996
2023-04-15T22:35:50.350Z,996
2023-04-15T22:41:50.379Z,996
2023-04-15T22:47:50.402Z,996
2023-04-15T22:53:50.338Z,996
2023-04-15T22:59:50.363Z,996
2023-04-15T23:05:50.395Z,996
2023-04-15T23:11:50.343Z,996
2023-04-15T23:17:50.406Z,996
2023-04-15T23:23:50.353Z,996
2023-04-15T23:29:50.333Z,996
2023-04-15T23:35:50.358Z,996
2023-04-15T23:42:00.622Z,996
2023-04-15T23:47:50.392Z,996
2023-04-15T23:53:50.345Z,996
2023-04-15T23:59:50.380Z,996
